createdAt,value
2022-08-14T00:02:01.565Z,50.10
2022-08-14T00:04:34.249Z,50.20
2022-08-14T00:07:09.301Z,50.10
2022-08-14T00:09:39.935Z,50.50
2022-08-14T00:12:24.889Z,50.50
2022-08-14T00:15:02.777Z,50.70
2022-08-14T00:17:31.477Z,50.40
2022-08-14T00:20:06.200Z,50.60
2022-08-14T00:22:56.061Z,50.80
2022-08-14T00:25:20.782Z,50.80
2022-08-14T00:27:49.150Z,50.50
2022-08-14T00:30:21.530Z,50.80
2022-08-14T00:32:53.089Z,50.90
2022-08-14T00:36:35.364Z,51.30
2022-08-14T00:38:10.911Z,51.30
2022-08-14T00:40:38.106Z,51.30
2022-08-14T00:43:07.768Z,51.20
2022-08-14T00:45:35.137Z,51.60
2022-08-14T00:48:04.935Z,51.80
2022-08-14T00:50:31.821Z,51.40
2022-08-14T00:53:04.031Z,51.80
2022-08-14T00:55:31.185Z,51.40
2022-08-14T00:58:18.803Z,51.90
2022-08-14T01:00:57.667Z,51.50
2022-08-14T01:03:30.777Z,52.90
2022-08-14T01:06:00.546Z,51.70
2022-08-14T01:08:51.135Z,52.20
2022-08-14T01:11:19.506Z,52.20
2022-08-14T01:13:50.739Z,52.00
2022-08-14T01:16:27.415Z,53.10
2022-08-14T01:19:15.382Z,53.60
2022-08-14T01:21:46.756Z,53.20
2022-08-14T01:24:15.515Z,52.60
2022-08-14T01:26:53.304Z,53.10
2022-08-14T01:29:59.239Z,52.40
2022-08-14T01:32:10.352Z,52.40
2022-08-14T01:35:21.073Z,52.70
2022-08-14T01:37:28.834Z,52.90
2022-08-14T01:39:58.457Z,53.70
2022-08-14T01:42:32.142Z,53.50
2022-08-14T01:45:11.961Z,53.80
2022-08-14T01:47:39.317Z,53.50
2022-08-14T01:50:07.909Z,53.20
2022-08-14T01:52:59.732Z,53.30
2022-08-14T01:55:31.914Z,53.80
2022-08-14T01:58:20.361Z,53.80
2022-08-14T02:00:53.922Z,54.00
2022-08-14T02:03:23.382Z,54.10
2022-08-14T02:05:50.639Z,55.30
2022-08-14T02:08:22.528Z,54.30
2022-08-14T02:11:20.384Z,54.10
2022-08-14T02:13:50.555Z,54.40
2022-08-14T02:16:22.255Z,54.70
2022-08-14T02:18:50.187Z,54.00
2022-08-14T02:21:19.560Z,54.10
2022-08-14T02:23:54.270Z,53.80
2022-08-14T02:26:29.056Z,53.70
2022-08-14T02:29:03.457Z,54.50
2022-08-14T02:31:42.071Z,54.60
2022-08-14T02:34:20.327Z,54.20
2022-08-14T02:37:04.318Z,54.50
2022-08-14T02:39:36.985Z,54.60
2022-08-14T02:42:05.855Z,55.10
2022-08-14T02:44:39.566Z,54.50
2022-08-14T02:47:15.177Z,55.70
2022-08-14T02:49:46.375Z,54.70
2022-08-14T02:52:56.799Z,54.90
2022-08-14T02:55:09.946Z,55.00
2022-08-14T02:57:39.746Z,55.10
2022-08-14T03:00:10.167Z,55.50
2022-08-14T03:02:56.491Z,55.20
2022-08-14T03:05:25.057Z,55.20
2022-08-14T03:07:53.594Z,55.40
2022-08-14T03:10:26.363Z,55.10
2022-08-14T03:12:59.133Z,55.20
2022-08-14T03:15:27.774Z,55.40
2022-08-14T03:17:56.256Z,55.40
2022-08-14T03:20:25.748Z,55.50
2022-08-14T03:22:52.947Z,55.50
2022-08-14T03:25:22.467Z,55.50
2022-08-14T03:27:59.116Z,55.30
2022-08-14T03:30:39.776Z,56.00
2022-08-14T03:33:10.340Z,56.40
2022-08-14T03:35:40.236Z,56.00
2022-08-14T03:39:21.808Z,56.20
2022-08-14T03:41:16.638Z,56.60
2022-08-14T03:43:45.841Z,56.00
2022-08-14T03:46:51.758Z,56.10
2022-08-14T03:49:13.958Z,56.60
2022-08-14T03:51:51.509Z,56.60
2022-08-14T03:54:21.028Z,56.20
2022-08-14T03:56:50.192Z,56.50
2022-08-14T03:59:18.635Z,56.60
2022-08-14T04:01:58.238Z,56.80
2022-08-14T04:04:30.335Z,57.20
2022-08-14T04:06:59.436Z,57.10
2022-08-14T04:09:27.130Z,57.50
2022-08-14T04:11:56.253Z,57.00
2022-08-14T04:14:26.679Z,57.00
2022-08-14T04:16:54.041Z,57.30
2022-08-14T04:19:24.041Z,57.30
2022-08-14T04:22:02.965Z,57.40
2022-08-14T04:24:37.695Z,57.20
2022-08-14T04:27:09.620Z,57.50
2022-08-14T04:29:39.117Z,57.60
2022-08-14T04:32:59.108Z,57.90
2022-08-14T04:34:55.231Z,57.30
2022-08-14T04:37:42.497Z,57.80
2022-08-14T04:40:29.445Z,57.90
2022-08-14T04:43:17.171Z,58.00
2022-08-14T04:45:45.894Z,58.10
2022-08-14T04:48:42.811Z,58.10
2022-08-14T04:51:11.132Z,58.20
2022-08-14T04:53:43.975Z,58.10
2022-08-14T04:56:33.842Z,58.10
2022-08-14T04:59:10.439Z,58.60
2022-08-14T05:01:45.126Z,58.80
2022-08-14T05:04:20.191Z,58.40
2022-08-14T05:06:49.139Z,59.90
2022-08-14T05:09:17.144Z,58.80
2022-08-14T05:11:44.601Z,58.70
2022-08-14T05:14:16.670Z,58.40
2022-08-14T05:17:02.076Z,58.90
2022-08-14T05:19:30.063Z,58.90
2022-08-14T05:22:17.330Z,58.60
2022-08-14T05:24:53.819Z,59.10
2022-08-14T05:27:22.310Z,58.80
2022-08-14T05:29:55.411Z,58.50
2022-08-14T05:32:27.225Z,58.40
2022-08-14T05:34:59.860Z,59.20
2022-08-14T05:37:28.520Z,59.10
2022-08-14T05:39:59.347Z,59.40
2022-08-14T05:42:31.893Z,58.90
2022-08-14T05:45:00.923Z,59.00
2022-08-14T05:47:39.331Z,59.00
2022-08-14T05:50:17.331Z,59.50
2022-08-14T05:52:48.154Z,59.10
2022-08-14T05:55:15.393Z,59.50
2022-08-14T05:57:49.057Z,59.20
2022-08-14T06:00:24.984Z,58.60
2022-08-14T06:02:57.816Z,58.90
2022-08-14T06:05:28.516Z,59.30
2022-08-14T06:07:57.398Z,59.00
2022-08-14T06:10:25.250Z,60.20
2022-08-14T06:12:57.264Z,59.00
2022-08-14T06:15:30.025Z,59.00
2022-08-14T06:18:00.296Z,59.40
2022-08-14T06:20:28.655Z,58.80
2022-08-14T06:22:57.726Z,59.10
2022-08-14T06:25:26.791Z,59.40
2022-08-14T06:27:54.723Z,58.30
2022-08-14T06:30:30.413Z,58.90
2022-08-14T06:33:15.754Z,58.90
2022-08-14T06:35:43.012Z,58.30
2022-08-14T06:38:17.288Z,59.80
2022-08-14T06:40:45.178Z,59.10
2022-08-14T06:43:15.542Z,59.40
2022-08-14T06:45:50.391Z,58.40
2022-08-14T06:48:24.931Z,59.00
2022-08-14T06:50:55.187Z,59.10
2022-08-14T06:53:27.609Z,58.60
2022-08-14T06:56:01.145Z,59.00
2022-08-14T06:58:30.878Z,58.40
2022-08-14T07:01:25.030Z,58.90
2022-08-14T07:04:24.203Z,58.40
2022-08-14T07:06:54.810Z,58.20
2022-08-14T07:09:27.937Z,57.80
2022-08-14T07:11:55.535Z,57.30
2022-08-14T07:14:23.372Z,57.90
2022-08-14T07:16:50.340Z,57.20
2022-08-14T07:19:20.840Z,58.10
2022-08-14T07:21:48.597Z,56.80
2022-08-14T07:24:26.248Z,56.60
2022-08-14T07:26:58.121Z,56.50
2022-08-14T07:29:28.868Z,55.60
2022-08-14T07:31:56.462Z,56.10
2022-08-14T07:34:40.628Z,55.50
2022-08-14T07:37:08.450Z,55.40
2022-08-14T07:39:36.987Z,55.20
2022-08-14T07:42:06.861Z,55.20
2022-08-14T07:44:45.738Z,55.20
2022-08-14T07:47:15.898Z,55.30
2022-08-14T07:49:59.061Z,55.10
2022-08-14T07:52:30.538Z,54.70
2022-08-14T07:55:10.354Z,54.60
2022-08-14T07:57:38.399Z,54.80
2022-08-14T08:00:31.354Z,54.10
2022-08-14T08:03:00.374Z,54.30
2022-08-14T08:05:28.965Z,54.00
2022-08-14T08:07:55.829Z,54.20
2022-08-14T08:11:01.274Z,54.10
2022-08-14T08:13:22.236Z,54.10
2022-08-14T08:15:54.489Z,54.40
2022-08-14T08:18:27.623Z,53.70
2022-08-14T08:21:00.218Z,53.50
2022-08-14T08:23:40.528Z,53.60
2022-08-14T08:26:11.629Z,53.30
2022-08-14T08:28:38.493Z,53.60
2022-08-14T08:31:12.621Z,53.40
2022-08-14T08:33:42.980Z,53.10
2022-08-14T08:36:12.862Z,52.70
2022-08-14T08:39:14.552Z,52.70
2022-08-14T08:41:43.268Z,52.60
2022-08-14T08:44:30.053Z,52.60
2022-08-14T08:46:59.366Z,52.50
2022-08-14T08:49:42.217Z,51.80
2022-08-14T08:52:15.380Z,52.10
2022-08-14T08:54:55.270Z,52.10
2022-08-14T08:57:22.680Z,51.60
2022-08-14T08:59:55.085Z,51.60
2022-08-14T09:02:22.714Z,51.60
2022-08-14T09:05:02.221Z,51.40
2022-08-14T09:07:31.395Z,51.20
2022-08-14T09:10:00.569Z,51.50
2022-08-14T09:12:32.656Z,50.90
2022-08-14T09:15:01.747Z,51.10
2022-08-14T09:17:28.884Z,51.00
2022-08-14T09:20:02.284Z,50.50
2022-08-14T09:22:36.133Z,49.80
2022-08-14T09:25:06.892Z,49.70
2022-08-14T09:27:35.192Z,49.10
2022-08-14T09:30:31.710Z,49.90
2022-08-14T09:33:10.891Z,50.10
2022-08-14T09:35:49.742Z,49.90
2022-08-14T09:38:35.872Z,49.50
2022-08-14T09:41:18.496Z,49.90
2022-08-14T09:43:58.861Z,49.50
2022-08-14T09:46:28.586Z,49.70
2022-08-14T09:48:59.219Z,49.60
2022-08-14T09:51:32.575Z,49.30
2022-08-14T09:54:18.290Z,49.20
2022-08-14T09:56:57.112Z,49.00
2022-08-14T09:59:28.011Z,48.80
2022-08-14T10:01:57.136Z,48.70
2022-08-14T10:04:33.460Z,49.00
2022-08-14T10:07:03.417Z,48.80
2022-08-14T10:09:33.364Z,48.60
2022-08-14T10:12:04.348Z,48.20
2022-08-14T10:14:37.623Z,48.20
2022-08-14T10:17:06.979Z,48.30
2022-08-14T10:19:46.950Z,48.10
2022-08-14T10:23:12.677Z,47.70
2022-08-14T10:25:11.751Z,47.50
2022-08-14T10:27:39.010Z,47.90
2022-08-14T10:30:13.439Z,46.90
2022-08-14T10:32:51.565Z,47.70
2022-08-14T10:35:22.334Z,47.70
2022-08-14T10:37:52.662Z,47.30
2022-08-14T10:40:37.810Z,46.80
2022-08-14T10:43:23.210Z,46.50
2022-08-14T10:46:03.369Z,46.00
2022-08-14T10:48:55.643Z,46.80
2022-08-14T10:51:25.320Z,46.60
2022-08-14T10:53:56.891Z,46.80
2022-08-14T10:56:34.176Z,46.90
2022-08-14T10:59:03.534Z,46.90
2022-08-14T11:01:32.431Z,46.70
2022-08-14T11:04:05.931Z,46.20
2022-08-14T11:06:33.407Z,46.40
2022-08-14T11:09:17.098Z,46.90
2022-08-14T11:11:45.398Z,46.70
2022-08-14T11:14:19.538Z,46.50
2022-08-14T11:16:53.730Z,46.20
2022-08-14T11:19:24.331Z,46.30
2022-08-14T11:21:55.513Z,46.50
2022-08-14T11:24:54.907Z,46.60
2022-08-14T11:27:20.243Z,46.60
2022-08-14T11:29:52.681Z,46.20
2022-08-14T11:32:28.213Z,46.40
2022-08-14T11:34:57.260Z,46.40
2022-08-14T11:37:39.392Z,46.50
2022-08-14T11:40:15.478Z,46.00
2022-08-14T11:42:56.577Z,45.50
2022-08-14T11:45:29.733Z,46.00
2022-08-14T11:48:13.239Z,45.60
2022-08-14T11:50:45.893Z,45.40
2022-08-14T11:53:21.745Z,44.30
2022-08-14T11:55:55.352Z,45.60
2022-08-14T11:58:28.542Z,45.30
2022-08-14T12:01:01.043Z,45.30
2022-08-14T12:03:51.285Z,45.00
2022-08-14T12:06:29.230Z,45.40
2022-08-14T12:09:08.873Z,45.20
2022-08-14T12:11:51.465Z,44.80
2022-08-14T12:14:29.927Z,44.70
2022-08-14T12:17:02.410Z,44.90
2022-08-14T12:19:33.752Z,44.80
2022-08-14T12:22:02.321Z,44.80
2022-08-14T12:24:36.255Z,44.80
2022-08-14T12:27:04.228Z,44.70
2022-08-14T12:29:32.752Z,44.20
2022-08-14T12:32:09.034Z,43.50
2022-08-14T12:34:40.655Z,43.10
2022-08-14T12:37:12.109Z,43.10
2022-08-14T12:39:40.456Z,43.90
2022-08-14T12:42:08.359Z,43.80
2022-08-14T12:44:42.961Z,43.70
2022-08-14T12:47:13.488Z,43.70
2022-08-14T12:49:50.696Z,41.50
2022-08-14T12:52:36.345Z,43.00
2022-08-14T12:55:21.091Z,42.60
2022-08-14T12:57:53.184Z,43.10
2022-08-14T13:00:25.391Z,42.90
2022-08-14T13:02:55.231Z,42.80
2022-08-14T13:05:25.089Z,42.30
2022-08-14T13:07:57.261Z,43.00
2022-08-14T13:10:47.724Z,42.60
2022-08-14T13:13:16.536Z,41.40
2022-08-14T13:15:46.664Z,41.50
2022-08-14T13:18:16.893Z,42.60
2022-08-14T13:20:49.445Z,42.80
2022-08-14T13:23:30.375Z,42.50
2022-08-14T13:25:59.792Z,42.50
2022-08-14T13:28:33.103Z,41.70
2022-08-14T13:31:08.857Z,42.30
2022-08-14T13:33:40.446Z,42.40
2022-08-14T13:36:09.561Z,41.90
2022-08-14T13:38:37.328Z,41.80
2022-08-14T13:41:06.160Z,42.20
2022-08-14T13:43:36.976Z,41.70
2022-08-14T13:46:21.888Z,41.50
2022-08-14T13:48:53.253Z,41.20
2022-08-14T13:51:24.472Z,41.30
2022-08-14T13:54:09.981Z,41.20
2022-08-14T13:56:40.076Z,41.30
2022-08-14T13:59:07.898Z,41.00
2022-08-14T14:01:43.527Z,41.30
2022-08-14T14:04:19.322Z,41.20
2022-08-14T14:06:48.831Z,41.00
2022-08-14T14:09:20.928Z,41.20
2022-08-14T14:11:47.963Z,41.00
2022-08-14T14:14:45.057Z,41.40
2022-08-14T14:17:12.505Z,41.30
2022-08-14T14:19:43.209Z,41.00
2022-08-14T14:22:13.377Z,40.80
2022-08-14T14:25:00.260Z,40.70
2022-08-14T14:27:44.215Z,40.80
2022-08-14T14:30:46.564Z,40.70
2022-08-14T14:33:14.349Z,40.80
2022-08-14T14:35:52.230Z,40.60
2022-08-14T14:38:19.896Z,40.30
2022-08-14T14:40:54.234Z,40.10
2022-08-14T14:43:28.960Z,40.30
2022-08-14T14:45:57.028Z,40.70
2022-08-14T14:48:31.439Z,39.90
2022-08-14T14:51:02.136Z,40.70
2022-08-14T14:53:39.102Z,40.70
2022-08-14T14:56:50.075Z,40.40
2022-08-14T14:58:57.851Z,40.60
2022-08-14T15:01:25.642Z,40.40
2022-08-14T15:03:54.700Z,40.60
2022-08-14T15:06:30.349Z,40.20
2022-08-14T15:09:00.282Z,40.20
2022-08-14T15:11:30.475Z,40.30
2022-08-14T15:14:00.312Z,40.40
2022-08-14T15:16:27.436Z,40.30
2022-08-14T15:18:56.078Z,39.60
2022-08-14T15:21:25.041Z,40.40
2022-08-14T15:23:53.061Z,40.50
2022-08-14T15:26:23.751Z,40.80
2022-08-14T15:29:02.811Z,40.40
2022-08-14T15:31:32.406Z,40.10
2022-08-14T15:34:46.111Z,40.20
2022-08-14T15:37:00.700Z,40.40
2022-08-14T15:39:29.668Z,40.20
2022-08-14T15:42:02.308Z,40.40
2022-08-14T15:44:34.395Z,40.60
2022-08-14T15:47:07.704Z,40.70
2022-08-14T15:49:37.334Z,40.70
2022-08-14T15:52:07.215Z,40.90
2022-08-14T15:54:35.061Z,40.90
2022-08-14T15:57:04.526Z,41.00
2022-08-14T15:59:51.464Z,41.00
2022-08-14T16:02:27.493Z,41.00
2022-08-14T16:04:56.860Z,41.10
2022-08-14T16:07:25.230Z,41.20
2022-08-14T16:10:25.372Z,41.40
2022-08-14T16:12:47.453Z,41.40
2022-08-14T16:15:16.935Z,41.30
2022-08-14T16:17:45.349Z,41.30
2022-08-14T16:23:11.904Z,41.50
2022-08-14T16:25:42.343Z,41.40
2022-08-14T16:28:10.048Z,41.70
2022-08-14T16:30:54.021Z,41.30
2022-08-14T16:33:27.896Z,41.50
2022-08-14T16:36:19.696Z,41.30
2022-08-14T16:39:00.038Z,41.60
2022-08-14T16:40:23.869Z,41.30
2022-08-14T16:41:27.629Z,41.40
2022-08-14T16:44:04.719Z,41.50
2022-08-14T16:46:35.287Z,41.50
2022-08-14T16:49:04.348Z,41.40
2022-08-14T16:51:36.233Z,41.20
2022-08-14T16:54:34.149Z,41.50
2022-08-14T16:56:53.853Z,41.90
2022-08-14T16:59:30.648Z,41.70
2022-08-14T17:02:11.114Z,41.60
2022-08-14T17:04:41.108Z,41.50
2022-08-14T17:07:12.824Z,41.60
2022-08-14T17:09:43.509Z,41.50
2022-08-14T17:12:28.392Z,41.50
2022-08-14T17:15:01.622Z,41.70
2022-08-14T17:17:43.571Z,41.90
2022-08-14T17:20:54.503Z,42.00
2022-08-14T17:23:11.050Z,42.00
2022-08-14T17:25:39.117Z,42.10
2022-08-14T17:28:39.107Z,42.10
2022-08-14T17:31:03.495Z,42.30
2022-08-14T17:33:40.243Z,42.20
2022-08-14T17:36:21.235Z,42.60
2022-08-14T17:42:01.939Z,42.60
2022-08-14T17:44:44.962Z,42.60
2022-08-14T17:47:14.539Z,42.60
2022-08-14T17:49:46.893Z,42.80
2022-08-14T17:52:17.673Z,42.80
2022-08-14T17:54:52.607Z,43.10
2022-08-14T17:57:28.271Z,43.10
2022-08-14T17:59:56.957Z,43.10
2022-08-14T18:02:31.300Z,43.20
2022-08-14T18:05:00.712Z,43.20
2022-08-14T18:08:00.241Z,43.60
2022-08-14T18:10:52.924Z,43.50
2022-08-14T18:13:10.574Z,43.70
2022-08-14T18:15:41.420Z,44.10
2022-08-14T18:18:11.243Z,44.30
2022-08-14T18:21:24.362Z,44.50
2022-08-14T18:23:28.356Z,44.80
2022-08-14T18:25:58.858Z,45.00
2022-08-14T18:28:48.141Z,45.10
2022-08-14T18:31:43.799Z,45.30
2022-08-14T18:34:31.677Z,45.70
2022-08-14T18:37:17.459Z,45.90
2022-08-14T18:40:02.036Z,46.00
2022-08-14T18:42:44.216Z,46.40
2022-08-14T18:45:16.015Z,46.20
2022-08-14T18:50:47.192Z,46.50
2022-08-14T18:53:15.855Z,46.60
2022-08-14T18:55:53.936Z,47.00
2022-08-14T18:58:33.851Z,46.80
2022-08-14T19:01:04.453Z,46.80
2022-08-14T19:03:54.951Z,46.90
2022-08-14T19:06:44.645Z,47.30
2022-08-14T19:09:56.414Z,47.20
2022-08-14T19:13:04.925Z,47.40
2022-08-14T19:15:36.248Z,47.40
2022-08-14T19:18:26.307Z,47.70
2022-08-14T19:20:58.238Z,47.70
2022-08-14T19:23:42.315Z,47.80
2022-08-14T19:26:37.047Z,47.80
2022-08-14T19:29:27.415Z,48.10
2022-08-14T19:32:39.685Z,48.30
2022-08-14T19:35:55.215Z,48.40
2022-08-14T19:38:51.984Z,48.50
2022-08-14T19:41:21.440Z,48.60
2022-08-14T19:43:56.697Z,49.50
2022-08-14T19:46:37.594Z,48.90
2022-08-14T19:49:08.750Z,49.00
2022-08-14T19:51:43.522Z,49.20
2022-08-14T19:54:13.775Z,49.20
2022-08-14T19:56:45.172Z,49.30
2022-08-14T19:59:17.609Z,49.60
2022-08-14T20:01:44.920Z,49.40
2022-08-14T20:04:45.205Z,49.30
2022-08-14T20:07:09.323Z,49.60
2022-08-14T20:11:06.715Z,49.80
2022-08-14T20:12:36.592Z,49.90
2022-08-14T20:15:18.006Z,50.00
2022-08-14T20:17:52.196Z,50.20
2022-08-14T20:20:30.945Z,50.20
2022-08-14T20:23:03.051Z,50.30
2022-08-14T20:25:45.255Z,51.00
2022-08-14T20:28:30.751Z,50.50
2022-08-14T20:31:13.412Z,50.60
2022-08-14T20:34:01.165Z,50.90
2022-08-14T20:36:31.727Z,50.90
2022-08-14T20:38:59.883Z,50.80
2022-08-14T20:41:27.132Z,50.70
2022-08-14T20:44:20.782Z,50.90
2022-08-14T20:46:49.884Z,51.00
2022-08-14T20:49:18.718Z,51.00
2022-08-14T20:51:58.737Z,51.10
2022-08-14T20:54:34.654Z,51.20
2022-08-14T20:57:08.961Z,51.20
2022-08-14T20:59:43.570Z,51.00
2022-08-14T21:02:29.584Z,51.40
2022-08-14T21:05:00.620Z,51.70
2022-08-14T21:07:36.706Z,51.90
2022-08-14T21:10:35.426Z,51.90
2022-08-14T21:14:08.774Z,52.40
2022-08-14T21:15:44.612Z,52.00
2022-08-14T21:18:28.596Z,52.30
2022-08-14T21:20:56.792Z,52.30
2022-08-14T21:23:24.198Z,52.30
2022-08-14T21:25:51.380Z,52.40
2022-08-14T21:28:30.020Z,52.70
2022-08-14T21:30:57.856Z,52.80
2022-08-14T21:33:26.641Z,52.80
2022-08-14T21:35:55.977Z,52.80
2022-08-14T21:38:33.616Z,52.90
2022-08-14T21:41:42.441Z,52.80
2022-08-14T21:44:04.091Z,52.90
2022-08-14T21:46:32.368Z,53.00
2022-08-14T21:49:00.657Z,53.30
2022-08-14T21:51:54.873Z,54.10
2022-08-14T21:54:31.912Z,53.50
2022-08-14T21:57:00.343Z,53.30
2022-08-14T21:59:32.420Z,53.70
2022-08-14T22:02:03.879Z,53.70
2022-08-14T22:04:40.321Z,53.90
2022-08-14T22:07:13.043Z,53.90
2022-08-14T22:09:44.792Z,53.80
2022-08-14T22:12:58.484Z,53.80
2022-08-14T22:15:03.511Z,53.90
2022-08-14T22:17:34.220Z,53.80
2022-08-14T22:20:06.113Z,54.80
2022-08-14T22:22:33.126Z,54.30
2022-08-14T22:25:01.189Z,54.30
2022-08-14T22:27:31.166Z,54.30
2022-08-14T22:30:00.971Z,54.10
2022-08-14T22:32:56.810Z,54.60
2022-08-14T22:35:23.323Z,54.60
2022-08-14T22:38:34.626Z,54.70
2022-08-14T22:41:12.542Z,54.80
2022-08-14T22:43:27.579Z,55.60
2022-08-14T22:46:02.157Z,54.60
2022-08-14T22:48:29.887Z,54.70
2022-08-14T22:50:58.622Z,55.00
2022-08-14T22:53:29.379Z,54.90
2022-08-14T22:55:56.756Z,55.20
2022-08-14T22:58:30.580Z,55.20
2022-08-14T23:01:01.427Z,55.30
2022-08-14T23:03:34.213Z,55.10
2022-08-14T23:06:04.300Z,55.20
2022-08-14T23:08:59.121Z,55.90
2022-08-14T23:11:39.227Z,55.20
2022-08-14T23:14:12.243Z,55.60
2022-08-14T23:16:40.348Z,55.50
2022-08-14T23:19:11.343Z,55.50
2022-08-14T23:21:46.155Z,55.70
2022-08-14T23:24:14.135Z,55.60
2022-08-14T23:26:48.072Z,55.70
2022-08-14T23:29:20.296Z,55.70
2022-08-14T23:31:49.102Z,55.70
2022-08-14T23:34:20.938Z,56.00
2022-08-14T23:36:53.979Z,56.00
2022-08-14T23:39:29.772Z,56.00
2022-08-14T23:42:02.501Z,56.20
2022-08-14T23:44:32.193Z,56.20
2022-08-14T23:47:10.901Z,56.30
2022-08-14T23:49:56.560Z,56.20
2022-08-14T23:52:50.296Z,56.30
2022-08-14T23:55:16.770Z,56.20
2022-08-14T23:57:58.269Z,56.40
